Date,TemperatureHighF,TemperatureAvgF,TemperatureLowF,DewpointHighF,DewpointAvgF,DewpointLowF,HumidityHigh,HumidityAvg,HumidityLow,PressureMaxIn,PressureMinIn,WindSpeedMaxMPH,WindSpeedAvgMPH,GustSpeedMaxMPH,PrecipitationSumIn
2013-5-1,85.0,74.1,69.0,74.0,69.6,67.0,99,88,55,0.00,40.00,10,5,21,1.02
2013-5-2,79.0,71.1,68.0,72.0,69.2,68.0,99,94,78,0.00,40.00,11,6,20,0.29
2013-5-3,87.0,74.1,67.0,70.0,67.6,65.0,99,83,50,0.00,40.00,11,6,21,0.28
2013-5-4,87.0,75.3,66.0,70.0,67.0,65.0,99,78,48,0.00,40.00,13,7,27,0.07
2013-5-5,80.0,71.7,64.0,67.0,61.9,52.0,98,75,39,0.00,40.00,14,7,24,0.05
2013-5-6,82.0,70.2,58.0,67.0,60.6,56.0,96,74,46,0.00,40.00,8,5,16,0.04
2013-5-7,83.0,69.9,61.0,63.0,59.4,55.0,98,73,42,0.00,40.00,11,6,21,0.05
2013-5-8,85.0,72.3,60.0,67.0,59.2,53.0,97,68,34,0.00,40.00,7,5,15,0.03
2013-5-9,89.0,75.0,62.0,74.0,64.9,60.0,97,75,41,0.00,40.00,10,4,18,0.02
2013-5-10,89.0,76.9,72.0,75.0,68.1,-99.9,99,81,49,0.00,40.00,12,6,40,0.49
2013-5-11,89.0,78.7,71.0,77.0,71.7,66.0,100,82,47,0.00,40.00,15,6,22,0.46
2013-5-12,89.0,77.7,71.0,76.0,69.9,-99.9,99,82,50,0.00,40.00,11,5,23,0.07
2013-5-13,84.0,76.7,69.0,72.0,68.9,65.0,99,79,55,0.00,40.00,11,6,19,0.09
2013-5-14,82.0,74.0,65.0,68.0,61.0,56.0,94,67,42,0.00,40.00,13,8,22,0.01
2013-5-15,82.0,73.1,64.0,65.0,61.6,57.0,94,70,43,0.00,40.00,13,6,22,0.00
2013-5-16,85.0,68.1,65.0,66.0,40.8,-99.9,95,68,41,0.00,40.00,11,6,17,0.00
2013-5-17,87.0,75.4,67.0,73.0,61.3,-99.9,97,79,48,0.00,40.00,11,5,19,0.00
2013-5-18,88.0,78.0,70.0,73.0,70.8,68.0,99,80,52,0.00,40.00,13,5,22,0.19
2013-5-19,88.0,78.0,70.0,72.0,68.8,64.0,99,76,48,0.00,40.00,11,6,19,0.01
2013-5-20,83.0,74.9,70.0,77.0,70.9,68.0,99,88,66,0.00,40.00,13,5,23,0.00
2013-5-21,87.0,76.2,68.0,72.0,69.4,67.0,98,81,56,0.00,40.00,15,7,23,0.02
2013-5-22,90.0,76.2,71.0,74.0,71.2,69.0,99,86,51,0.00,40.00,8,4,23,0.59
2013-5-23,91.0,79.8,70.0,76.0,70.6,65.0,99,77,43,0.00,40.00,9,5,16,0.26
2013-5-24,93.0,81.0,70.0,75.0,70.1,63.0,99,74,38,0.00,40.00,9,5,17,0.01
2013-5-25,86.0,79.0,71.0,74.0,67.9,64.0,96,72,48,0.00,40.00,14,8,22,0.00
2013-5-26,86.0,75.8,65.0,68.0,64.4,62.0,95,71,46,0.00,40.00,12,7,22,0.00
2013-5-27,85.0,76.3,66.0,72.0,67.7,64.0,94,76,58,0.00,40.00,15,9,22,0.00
2013-5-28,84.0,76.7,73.0,74.0,71.8,69.0,95,86,65,0.00,40.00,15,9,24,0.56
2013-5-29,81.0,74.6,71.0,74.0,70.9,68.0,97,89,70,0.00,40.00,14,8,28,0.05
2013-5-30,83.0,76.6,71.0,75.0,71.4,68.0,97,84,67,0.00,40.00,19,11,32,0.02
2013-5-31,84.0,77.2,74.0,75.0,73.3,72.0,97,89,70,0.00,40.00,14,8,22,0.02